Christy S — WDE5537 — position and weather

sailwx.info

Track history (hours):
 
Tides and Currents Weather Stations Pressure Air Temp Water Temp Dewpoint Dewpoint Depression Visibility Wind Speed Wind Dir Waves Ship Positions

Christy S

Owner: AMERICAN WORKBOATS, TERMINAL ISLAND, CA. More information available from US FCC via Universal Licensing System and Coast Guard Vessel Documentation Center.

Last reported at 2017-Sep-20 02:42 UTC. Time now 2017-Sep-23 16:16 UTC.
Position N 33°44' W 118°16'.

Length 19 m; draft 6.6 m.

Type: Passenger vessel. MMSI: 367368180.

Date/timePositionNaut miles runAvg speedWind from/ knotsBaromVisibWave heightAir tempDewpointWater temp
2017-Sep-20 02:42N 33°44' W 118°16'1 4.3
2017-Sep-20 02:28N 33°43' W 118°16'1 1.1
2017-Sep-20 01:41N 33°43' W 118°15'2 4.7
2017-Sep-20 01:21N 33°44' W 118°16'1 0.1
2017-Sep-19 18:16N 33°43' W 118°16'415.6
2017-Sep-19 17:59N 33°41' W 118°11'1 1.2
2017-Sep-19 17:22N 33°41' W 118°12'410.7
2017-Sep-19 16:59N 33°44' W 118°16'0 0.8
2017-Sep-19 16:30N 33°44' W 118°16'2 0.1
2017-Sep-18 18:52N 33°43' W 118°15'3 2.0
2017-Sep-18 17:27N 33°42' W 118°11'4 0.1
2017-Sep-17 01:46N 33°43' W 118°15'310.8
2017-Sep-17 01:28N 33°42' W 118°12'2 2.2
2017-Sep-17 00:39N 33°41' W 118°10'213.8
2017-Sep-17 00:30N 33°42' W 118°12'4 0.7
2017-Sep-16 18:56N 33°44' W 118°16'1 1.2
2017-Sep-16 18:24N 33°44' W 118°17'0 0.7
2017-Sep-16 17:57N 33°44' W 118°16'0 0.7
2017-Sep-16 17:25N 33°44' W 118°16'0 0.2
2017-Sep-16 16:33N 33°44' W 118°16'0 0.0
2017-Sep-16 01:46N 33°44' W 118°16'0 0.0
2017-Sep-16 01:28N 33°44' W 118°16'0 0.0
2017-Sep-16 00:58N 33°44' W 118°16'0 0.1
2017-Sep-16 00:30N 33°44' W 118°16'2 0.6
2017-Sep-15 20:42N 33°42' W 118°17'2 8.9
2017-Sep-15 20:30N 33°44' W 118°16'0 0.9
2017-Sep-15 20:00N 33°44' W 118°16'0 0.0
2017-Sep-15 03:21N 33°44' W 118°16'0 0.0
2017-Sep-15 02:34N 33°44' W 118°16'0 0.0
2017-Sep-14 22:22N 33°44' W 118°16'410.4
2017-Sep-14 21:58N 33°41' W 118°12'2 3.8
2017-Sep-14 21:23N 33°41' W 118°09'6 0.3
2017-Sep-14 00:45N 33°44' W 118°16'0 0.3
2017-Sep-14 00:23N 33°44' W 118°16'3 7.4
2017-Sep-13 23:58N 33°44' W 118°12'0 0.2
2017-Sep-13 23:30N 33°44' W 118°12'0 0.1
2017-Sep-13 22:50N 33°44' W 118°12'0 0.0
2017-Sep-13 22:29N 33°44' W 118°12'3 0.1
2017-Sep-12 21:06N 33°44' W 118°16'0 2.8
2017-Sep-12 20:57N 33°44' W 118°16'0 0.0
2017-Sep-11 18:42N 33°44' W 118°16'2 8.4
2017-Sep-11 18:30N 33°43' W 118°14'0 0.7
2017-Sep-11 17:58N 33°43' W 118°14'2 1.5
2017-Sep-11 16:48N 33°44' W 118°16'1 3.3
2017-Sep-11 16:26N 33°43' W 118°15'512.2
2017-Sep-11 16:00N 33°44' W 118°09'  
Track history (hours):
 
Tides and Currents Weather Stations Pressure Air Temp Water Temp Dewpoint Dewpoint Depression Visibility Wind Speed Wind Dir Waves Ship Positions

Christy S

Owner: AMERICAN WORKBOATS, TERMINAL ISLAND, CA. More information available from US FCC via Universal Licensing System and Coast Guard Vessel Documentation Center.

Last reported at 2017-Sep-20 02:42 UTC. Time now 2017-Sep-23 16:16 UTC.
Position N 33°44' W 118°16'.

Length 19 m; draft 6.6 m.

Type: Passenger vessel. MMSI: 367368180.

Date/timePositionNaut miles runAvg speedWind from/ knotsBaromVisibWave heightAir tempDewpointWater temp
2017-Sep-20 02:42N 33°44' W 118°16'1 4.3
2017-Sep-20 02:28N 33°43' W 118°16'1 1.1
2017-Sep-20 01:41N 33°43' W 118°15'2 4.7
2017-Sep-20 01:21N 33°44' W 118°16'1 0.1
2017-Sep-19 18:16N 33°43' W 118°16'415.6
2017-Sep-19 17:59N 33°41' W 118°11'1 1.2
2017-Sep-19 17:22N 33°41' W 118°12'410.7
2017-Sep-19 16:59N 33°44' W 118°16'0 0.8
2017-Sep-19 16:30N 33°44' W 118°16'2 0.1
2017-Sep-18 18:52N 33°43' W 118°15'3 2.0
2017-Sep-18 17:27N 33°42' W 118°11'4 0.1
2017-Sep-17 01:46N 33°43' W 118°15'310.8
2017-Sep-17 01:28N 33°42' W 118°12'2 2.2
2017-Sep-17 00:39N 33°41' W 118°10'213.8
2017-Sep-17 00:30N 33°42' W 118°12'4 0.7
2017-Sep-16 18:56N 33°44' W 118°16'1 1.2
2017-Sep-16 18:24N 33°44' W 118°17'0 0.7
2017-Sep-16 17:57N 33°44' W 118°16'0 0.7
2017-Sep-16 17:25N 33°44' W 118°16'0 0.2
2017-Sep-16 16:33N 33°44' W 118°16'0 0.0
2017-Sep-16 01:46N 33°44' W 118°16'0 0.0
2017-Sep-16 01:28N 33°44' W 118°16'0 0.0
2017-Sep-16 00:58N 33°44' W 118°16'0 0.1
2017-Sep-16 00:30N 33°44' W 118°16'2 0.6
2017-Sep-15 20:42N 33°42' W 118°17'2 8.9
2017-Sep-15 20:30N 33°44' W 118°16'0 0.9
2017-Sep-15 20:00N 33°44' W 118°16'0 0.0
2017-Sep-15 03:21N 33°44' W 118°16'0 0.0
2017-Sep-15 02:34N 33°44' W 118°16'0 0.0
2017-Sep-14 22:22N 33°44' W 118°16'410.4
2017-Sep-14 21:58N 33°41' W 118°12'2 3.8
2017-Sep-14 21:23N 33°41' W 118°09'6 0.3
2017-Sep-14 00:45N 33°44' W 118°16'0 0.3
2017-Sep-14 00:23N 33°44' W 118°16'3 7.4
2017-Sep-13 23:58N 33°44' W 118°12'0 0.2
2017-Sep-13 23:30N 33°44' W 118°12'0 0.1
2017-Sep-13 22:50N 33°44' W 118°12'0 0.0
2017-Sep-13 22:29N 33°44' W 118°12'3 0.1
2017-Sep-12 21:06N 33°44' W 118°16'0 2.8
2017-Sep-12 20:57N 33°44' W 118°16'0 0.0
2017-Sep-11 18:42N 33°44' W 118°16'2 8.4
2017-Sep-11 18:30N 33°43' W 118°14'0 0.7
2017-Sep-11 17:58N 33°43' W 118°14'2 1.5
2017-Sep-11 16:48N 33°44' W 118°16'1 3.3
2017-Sep-11 16:26N 33°43' W 118°15'512.2
2017-Sep-11 16:00N 33°44' W 118°09'  

Dump ship's entire track history